Rechercher aéroport 
image banner adimage banner adimage banner ad
image banner ad

PN68 - Jackson

Situé à New Galilee, United States

ICAO - PN68, IATA -

Données fournies par Airmate  

Information générale

Coordonnées: N40°53'49" W80°22'4"
Élévation : 930 feet MSL.
Variation magnétique : -07° East
Voir autres Aéroports à Pennsylvania

Données opérationnelles

Special qualification required
Heure actuelle UTC:
Heure actuelle locale:
Météo à : KBVI - Beaver County ( 14 km )
METAR: KBVI 132055Z AUTO 35007KT 10SM SCT046 SCT060 BKN110 30/20 A2982 RMK AO2 LTG DSNT NE S AND NW T02960200
TAF: KBVI 131720Z 1318/1418 29004KT P6SM VCTS BKN050CB TEMPO 1318/1321 4SM -TSRA OVC040CB FM132300 32004KT P6SM SCT070 FM141500 26007KT P6SM SCT060
Voir NOTAMs / SUP AIP / TFR affectant cet aéroport [VIEW]
Fréquences de communication: [VIEW]

Pistes:

Identifiant RWYQFULongueur (ft)Largeur (ft)SurfaceLDA (ft)
181200100GRASS
361200100GRASS

Coordonnées de l'aéroport

Adresse: New Galilee United States

Vue satellite de PN68